Time;durP1;ratioP1;P1;durP2;ratioP2;P2;SDS_P1;SDS_P2;PMS_P1;PMS_P2;Temp;Humidity;BMP_temperature;BMP_pressure;BME280_temperature;BME280_humidity;BME280_pressure;Samples;Min_cycle;Max_cycle;Signal;HPM_P1;HPM_P2
2021/05/31 00:01:15;;;;;;;;;;;;;;;20.18;65.69;100871.63;5010246;28;1526;-45
2021/05/31 00:03:41;;;;;;;;;;;;;;;20.22;65.88;100887.31;5010723;28;1536;-45
2021/05/31 00:06:07;;;;;;;;;;;;;;;20.17;65.80;100883.34;5012770;28;1620;-45
2021/05/31 00:08:33;;;;;;;;;;;;;;;20.19;65.84;100879.56;5015837;28;1633;-45
2021/05/31 00:11:00;;;;;;;;;;;;;;;20.18;66.11;100883.22;5015708;28;1673;-46
2021/05/31 00:13:28;;;;;;;;;;;;;;;20.17;65.58;100873.44;5015722;28;1539;-46
2021/05/31 00:15:54;;;;;;;;;;;;;;;20.18;65.93;100887.75;5014931;28;1977;-45
2021/05/31 00:18:21;;;;;;;;;;;;;;;20.20;65.68;100880.41;5014381;28;1441;-45
2021/05/31 00:20:47;;;;;;;;;;;;;;;20.17;65.83;100868.06;5015069;28;1484;-45
2021/05/31 00:23:13;;;;;;;;;;;;;;;20.19;65.73;100866.13;5014888;28;1520;-46
2021/05/31 00:25:39;;;;;;;;;;;;;;;20.18;66.13;100856.38;5011632;28;1547;-45
2021/05/31 00:28:05;;;;;;;;;;;;;;;20.16;66.01;100861.03;5014529;28;1529;-46
2021/05/31 00:30:32;;;;;;;;;;;;;;;20.20;65.87;100867.81;5015533;28;1610;-45
2021/05/31 00:32:58;;;;;;;;;;;;;;;20.17;65.71;100859.19;5014471;28;1516;-45
2021/05/31 00:35:25;;;;;;;;;;;;;;;20.17;66.03;100860.03;5015343;28;1914;-45
2021/05/31 00:37:54;;;;;;;;;;;;;;;20.15;65.95;100851.25;5015328;28;1517;-45
2021/05/31 00:40:20;;;;;;;;;;;;;;;20.16;65.67;100858.34;5015172;28;1412;-46
2021/05/31 00:42:46;;;;;;;;;;;;;;;20.14;66.65;100854.94;5012269;28;1500;-45
2021/05/31 00:45:12;;;;;;;;;;;;;;;20.15;66.20;100855.78;5013849;28;1499;-45
2021/05/31 00:47:39;;;;;;;;;;;;;;;20.17;66.21;100854.66;5013100;28;1481;-46
2021/05/31 00:50:06;;;;;;;;;;;;;;;20.14;66.61;100860.31;5012701;28;1500;-45
2021/05/31 00:52:32;;;;;;;;;;;;;;;20.14;66.28;100848.75;5008837;28;1622;-45
2021/05/31 00:54:58;;;;;;;;;;;;;;;20.14;66.57;100857.63;5006018;28;1973;-46
2021/05/31 00:57:24;;;;;;;;;;;;;;;20.13;66.78;100853.25;4999390;28;1960;-45
2021/05/31 00:59:50;;;;;;;;;;;;;;;20.12;66.21;100854.25;5008727;28;1823;-45
2021/05/31 01:02:16;;;;;;;;;;;;;;;20.14;65.57;100846.06;5007076;28;1510;-46
2021/05/31 01:04:43;;;;;;;;;;;;;;;20.12;66.00;100838.13;5010755;28;1487;-46
2021/05/31 01:07:11;;;;;;;;;;;;;;;20.13;66.52;100837.13;5014484;28;1496;-45
2021/05/31 01:09:45;;;;;;;;;;;;;;;20.12;66.25;100846.19;5015070;28;1179;-45
2021/05/31 01:12:17;;;;;;;;;;;;;;;20.10;65.98;100837.44;5014875;28;1520;-45
2021/05/31 01:14:47;;;;;;;;;;;;;;;20.10;66.42;100842.81;5013604;28;1477;-45
2021/05/31 01:17:15;;;;;;;;;;;;;;;20.12;65.83;100835.44;5012950;28;1977;-46
2021/05/31 01:19:56;;;;;;;;;;;;;;;20.12;66.08;100845.34;5011613;28;1645;-45
2021/05/31 01:22:23;;;;;;;;;;;;;;;20.10;66.24;100831.22;5012967;28;2049;-46
2021/05/31 01:24:55;;;;;;;;;;;;;;;20.08;65.85;100828.69;5014681;28;1247;-45
2021/05/31 01:27:26;;;;;;;;;;;;;;;20.10;65.81;100825.84;5014360;28;1472;-45
2021/05/31 01:29:54;;;;;;;;;;;;;;;20.09;66.26;100835.72;5012931;28;1589;-46
2021/05/31 01:32:22;;;;;;;;;;;;;;;20.08;66.76;100831.34;5012909;28;1528;-45
2021/05/31 01:34:51;;;;;;;;;;;;;;;20.07;65.79;100826.97;5012178;28;1496;-45
2021/05/31 01:37:18;;;;;;;;;;;;;;;20.08;66.13;100830.50;5013714;28;1910;-45
2021/05/31 01:39:45;;;;;;;;;;;;;;;20.10;66.28;100818.63;5012936;28;1255;-46
2021/05/31 01:42:11;;;;;;;;;;;;;;;20.10;66.63;100837.44;5013020;28;1494;-45
2021/05/31 01:44:38;;;;;;;;;;;;;;;20.09;66.07;100826.81;5009315;28;1616;-45
2021/05/31 01:47:06;;;;;;;;;;;;;;;20.09;66.97;100835.72;5009533;28;1645;-45
2021/05/31 01:49:33;;;;;;;;;;;;;;;20.05;65.89;100834.31;5005648;28;1678;-45
2021/05/31 01:52:00;;;;;;;;;;;;;;;20.05;65.79;100826.25;5006464;28;1143;-45
2021/05/31 01:54:26;;;;;;;;;;;;;;;20.08;65.65;100827.84;5008789;28;2317;-46
2021/05/31 01:56:53;;;;;;;;;;;;;;;20.07;64.79;100837.69;5013574;28;1902;-45
2021/05/31 01:59:19;;;;;;;;;;;;;;;20.06;65.18;100826.13;5009613;28;1587;-46
2021/05/31 02:01:53;;;;;;;;;;;;;;;20.04;65.53;100824.56;5015708;23;3760;-81
2021/05/31 02:04:22;;;;;;;;;;;;;;;20.05;65.04;100831.63;5014766;28;1619;-82
2021/05/31 02:06:49;;;;;;;;;;;;;;;20.09;65.79;100841.09;5020817;28;1665;-82
2021/05/31 02:09:18;;;;;;;;;;;;;;;20.05;65.33;100835.19;5021439;28;1629;-82
2021/05/31 02:11:56;;;;;;;;;;;;;;;20.07;65.43;100832.34;5014977;28;1402;-81
2021/05/31 02:14:28;;;;;;;;;;;;;;;20.07;64.69;100848.44;5010748;28;1516;-81
2021/05/31 02:16:59;;;;;;;;;;;;;;;20.05;65.10;100837.88;5015899;28;1981;-80
2021/05/31 02:19:28;;;;;;;;;;;;;;;20.01;64.53;100833.72;5015872;28;1206;-80
2021/05/31 02:21:55;;;;;;;;;;;;;;;20.01;64.48;100839.09;5019295;28;1552;-80
2021/05/31 02:24:23;;;;;;;;;;;;;;;20.02;65.14;100848.88;5022417;28;1445;-81
2021/05/31 02:26:52;;;;;;;;;;;;;;;20.04;64.70;100848.72;5016455;28;1589;-80
2021/05/31 02:29:25;;;;;;;;;;;;;;;20.04;64.08;100833.47;5017141;28;1504;-82
2021/05/31 02:31:52;;;;;;;;;;;;;;;20.04;64.30;100836.16;5015811;28;1128;-80
2021/05/31 02:34:18;;;;;;;;;;;;;;;20.02;65.02;100835.44;5015289;28;1551;-80
2021/05/31 02:36:46;;;;;;;;;;;;;;;20.05;64.44;100828.94;5010681;28;1979;-79
2021/05/31 02:39:14;;;;;;;;;;;;;;;19.99;64.18;100848.28;5013562;28;1679;-83
2021/05/31 02:41:46;;;;;;;;;;;;;;;19.95;64.28;100831.63;5013829;28;1534;-81
2021/05/31 02:44:14;;;;;;;;;;;;;;;19.97;64.76;100836.84;5013832;28;1557;-82
2021/05/31 02:46:40;;;;;;;;;;;;;;;19.93;64.26;100844.31;5013976;28;1529;-80
2021/05/31 02:49:07;;;;;;;;;;;;;;;19.95;64.61;100849.56;5014907;28;1764;-80
2021/05/31 02:51:34;;;;;;;;;;;;;;;19.96;64.24;100836.00;5015601;28;1799;-80
2021/05/31 02:54:02;;;;;;;;;;;;;;;19.97;64.69;100850.28;5010413;28;1413;-80
2021/05/31 02:56:30;;;;;;;;;;;;;;;19.99;63.75;100840.25;5015595;28;1906;-82
2021/05/31 02:58:56;;;;;;;;;;;;;;;19.98;64.18;100843.94;5009149;28;1441;-80
2021/05/31 03:01:22;;;;;;;;;;;;;;;19.98;64.70;100854.66;5013485;28;1819;-80
2021/05/31 03:03:48;;;;;;;;;;;;;;;19.99;64.10;100850.97;5015233;28;1780;-81
2021/05/31 03:06:14;;;;;;;;;;;;;;;19.97;63.78;100843.06;5013870;28;1446;-80
2021/05/31 03:08:40;;;;;;;;;;;;;;;19.97;63.64;100847.59;5012861;28;1552;-81
2021/05/31 03:11:08;;;;;;;;;;;;;;;19.90;64.56;100835.72;5015105;28;1402;-80
2021/05/31 03:13:42;;;;;;;;;;;;;;;19.97;64.37;100836.84;5012153;28;1299;-80
2021/05/31 03:16:08;;;;;;;;;;;;;;;19.97;63.75;100852.97;5002520;28;1980;-81
2021/05/31 03:18:35;;;;;;;;;;;;;;;19.98;63.50;100838.56;5015944;28;1477;-81
2021/05/31 03:21:02;;;;;;;;;;;;;;;19.98;63.82;100838.56;5009074;28;1734;-81
2021/05/31 03:23:28;;;;;;;;;;;;;;;19.96;64.44;100837.84;5007112;28;1862;-81
2021/05/31 03:25:54;;;;;;;;;;;;;;;19.94;63.88;100835.31;5018250;28;1534;-80
2021/05/31 03:28:22;;;;;;;;;;;;;;;19.93;63.91;100846.16;5016191;28;1477;-80
2021/05/31 03:30:48;;;;;;;;;;;;;;;19.92;64.34;100839.13;5010522;28;1563;-81
2021/05/31 03:33:15;;;;;;;;;;;;;;;19.93;64.86;100865.81;5019711;28;1488;-81
2021/05/31 03:35:41;;;;;;;;;;;;;;;19.94;64.33;100845.19;5009903;28;2023;-80
2021/05/31 03:38:07;;;;;;;;;;;;;;;19.96;64.12;100854.78;5010075;28;1441;-83
2021/05/31 03:40:33;;;;;;;;;;;;;;;19.95;63.85;100828.09;5006433;28;1069;-80
2021/05/31 03:42:59;;;;;;;;;;;;;;;19.95;64.04;100847.72;5008361;28;1108;-81
2021/05/31 03:45:27;;;;;;;;;;;;;;;19.94;64.18;100854.09;5010550;28;1512;-82
2021/05/31 03:47:54;;;;;;;;;;;;;;;19.94;63.58;100842.53;5010061;28;1673;-80
2021/05/31 03:50:20;;;;;;;;;;;;;;;19.96;64.08;100851.28;5011315;28;1589;-81
2021/05/31 03:52:48;;;;;;;;;;;;;;;20.02;64.88;100845.34;5010813;28;1563;-81
2021/05/31 03:55:15;;;;;;;;;;;;;;;19.99;64.30;100851.81;4996241;28;1972;-80
2021/05/31 03:57:41;;;;;;;;;;;;;;;20.02;64.25;100839.97;5003931;28;1926;-80
2021/05/31 04:00:08;;;;;;;;;;;;;;;19.96;63.60;100836.00;5011563;28;1457;-81
2021/05/31 04:02:39;;;;;;;;;;;;;;;19.92;63.49;100842.66;5009843;28;1437;-82
2021/05/31 04:05:10;;;;;;;;;;;;;;;19.94;64.47;100858.63;5010212;28;1493;-80
2021/05/31 04:13:13;;;;;;;;;;;;;;;19.94;63.99;100853.25;5009984;28;1379;-82
2021/05/31 04:15:39;;;;;;;;;;;;;;;19.91;63.82;100848.16;5012594;28;1887;-80
2021/05/31 04:18:07;;;;;;;;;;;;;;;19.91;64.62;100854.34;5011521;28;1419;-80
2021/05/31 04:20:34;;;;;;;;;;;;;;;19.90;64.20;100855.34;5010185;28;1416;-80
2021/05/31 04:23:00;;;;;;;;;;;;;;;19.92;63.99;100863.28;5012192;28;1521;-80
2021/05/31 04:25:26;;;;;;;;;;;;;;;19.88;63.58;100860.03;5004412;28;1027;-80
2021/05/31 04:27:52;;;;;;;;;;;;;;;19.88;64.19;100853.81;5000001;28;1566;-81
2021/05/31 04:30:19;;;;;;;;;;;;;;;19.89;64.72;100855.50;5014449;28;1603;-80
2021/05/31 04:32:45;;;;;;;;;;;;;;;19.90;64.66;100855.34;5003927;28;1579;-81
2021/05/31 04:35:18;;;;;;;;;;;;;;;19.89;64.90;100850.97;5024758;23;3633;-44
2021/05/31 04:37:45;;;;;;;;;;;;;;;19.83;63.74;100851.53;5010734;28;1349;-44
2021/05/31 04:40:12;;;;;;;;;;;;;;;19.76;64.91;100835.13;5010833;28;1194;-44
2021/05/31 04:42:41;;;;;;;;;;;;;;;19.80;64.39;100841.94;5010661;28;1540;-44
2021/05/31 04:45:10;;;;;;;;;;;;;;;19.78;64.38;100838.53;5010002;28;1456;-44
2021/05/31 04:47:39;;;;;;;;;;;;;;;19.80;64.04;100841.94;5008262;28;1719;-47
2021/05/31 04:50:08;;;;;;;;;;;;;;;19.77;64.26;100838.66;5010502;28;1554;-44
2021/05/31 04:52:37;;;;;;;;;;;;;;;19.78;63.70;100835.00;5011160;28;1469;-44
2021/05/31 04:55:04;;;;;;;;;;;;;;;19.74;64.18;100829.06;5014762;28;1512;-46
2021/05/31 04:57:31;;;;;;;;;;;;;;;19.76;63.49;100840.50;5011304;28;1902;-45
2021/05/31 05:00:04;;;;;;;;;;;;;;;19.73;64.05;100835.41;5013388;28;1473;-45
2021/05/31 05:02:34;;;;;;;;;;;;;;;19.77;63.79;100836.81;5008199;28;1786;-44
2021/05/31 05:05:00;;;;;;;;;;;;;;;19.80;63.93;100844.59;5013463;28;1560;-44
2021/05/31 05:07:34;;;;;;;;;;;;;;;19.79;62.92;100832.16;5013845;28;1780;-45
2021/05/31 05:10:04;;;;;;;;;;;;;;;19.82;63.77;100839.13;5011810;28;1407;-44
2021/05/31 05:12:33;;;;;;;;;;;;;;;19.82;63.07;100845.31;5008428;28;1535;-46
2021/05/31 05:15:05;;;;;;;;;;;;;;;19.80;63.55;100833.88;5011813;28;1589;-46
2021/05/31 05:17:34;;;;;;;;;;;;;;;19.88;63.47;100848.44;5012011;28;3122;-44
2021/05/31 05:20:01;;;;;;;;;;;;;;;19.89;63.94;100848.28;5012823;28;1560;-44
2021/05/31 05:22:29;;;;;;;;;;;;;;;19.84;64.26;100846.03;5010078;28;1504;-44
2021/05/31 05:24:58;;;;;;;;;;;;;;;19.86;64.06;100844.06;5002567;28;11235;-44
2021/05/31 05:27:37;;;;;;;;;;;;;;;19.83;63.36;100835.41;5030914;28;1539;-45
2021/05/31 05:30:04;;;;;;;;;;;;;;;19.83;63.39;100840.78;5029129;28;1595;-45
2021/05/31 05:32:36;;;;;;;;;;;;;;;19.94;63.62;100851.41;5031570;28;1678;-44
2021/05/31 05:35:17;;;;;;;;;;;;;;;19.84;64.59;100834.44;5029168;28;1656;-45
2021/05/31 05:38:01;;;;;;;;;;;;;;;19.83;63.92;100841.63;5026073;28;1902;-46
2021/05/31 05:46:21;;;;;;;;;;;;;;;19.67;64.20;100833.25;5030612;28;1479;-45
2021/05/31 05:49:02;;;;;;;;;;;;;;;19.68;63.84;100837.63;5030082;28;2048;-45
2021/05/31 05:51:29;;;;;;;;;;;;;;;19.72;64.19;100841.78;5025662;28;1632;-46
2021/05/31 05:53:58;;;;;;;;;;;;;;;19.78;63.53;100849.25;4964851;28;1968;-46
2021/05/31 05:56:27;;;;;;;;;;;;;;;19.72;63.33;100843.63;5026234;28;1919;-46
2021/05/31 05:58:56;;;;;;;;;;;;;;;19.71;62.80;100837.38;5026549;28;1103;-45
2021/05/31 06:01:28;;;;;;;;;;;;;;;19.67;63.80;100825.19;5028476;28;1538;-46
2021/05/31 06:03:57;;;;;;;;;;;;;;;19.70;64.19;100846.41;5027782;28;1932;-46
2021/05/31 06:06:25;;;;;;;;;;;;;;;19.69;64.00;100828.59;5031752;28;1619;-45
2021/05/31 06:08:52;;;;;;;;;;;;;;;19.71;63.88;100847.25;5029452;28;1603;-45
2021/05/31 06:11:24;;;;;;;;;;;;;;;19.66;63.80;100835.09;5030877;28;1520;-45
2021/05/31 06:13:52;;;;;;;;;;;;;;;19.60;63.64;100840.16;5033524;28;1357;-46
2021/05/31 06:16:21;;;;;;;;;;;;;;;19.60;64.47;100830.28;5030222;28;1914;-46
2021/05/31 06:18:50;;;;;;;;;;;;;;;19.64;64.29;100838.91;5032559;28;1503;-46
2021/05/31 06:21:19;;;;;;;;;;;;;;;19.72;64.34;100849.81;5031228;28;1659;-46
2021/05/31 06:23:45;;;;;;;;;;;;;;;19.77;64.13;100834.13;5030881;28;1606;-45
2021/05/31 06:26:12;;;;;;;;;;;;;;;19.70;64.34;100822.25;5021564;28;1405;-46
2021/05/31 06:28:38;;;;;;;;;;;;;;;19.64;64.34;100836.22;5022738;28;1710;-46
2021/05/31 06:31:04;;;;;;;;;;;;;;;19.65;64.17;100830.69;5027432;28;1658;-45
2021/05/31 06:33:32;;;;;;;;;;;;;;;19.64;63.79;100839.75;5025466;28;1671;-46
2021/05/31 06:35:59;;;;;;;;;;;;;;;19.66;64.11;100839.63;5022582;28;1993;-46
2021/05/31 06:38:25;;;;;;;;;;;;;;;19.71;64.35;100839.19;5030373;28;1579;-46
2021/05/31 06:40:51;;;;;;;;;;;;;;;19.58;65.07;100836.78;5030206;28;1454;-46
2021/05/31 06:43:17;;;;;;;;;;;;;;;19.51;64.36;100830.25;5029566;28;1498;-46
2021/05/31 06:45:43;;;;;;;;;;;;;;;19.57;64.31;100840.44;5029022;28;1592;-46
2021/05/31 06:48:10;;;;;;;;;;;;;;;19.53;64.06;100829.13;5030410;28;1584;-45
2021/05/31 06:50:38;;;;;;;;;;;;;;;19.57;63.89;100845.78;5030847;28;1555;-46
2021/05/31 06:53:04;;;;;;;;;;;;;;;19.50;64.03;100837.47;5027214;28;1578;-45
2021/05/31 06:55:31;;;;;;;;;;;;;;;19.48;64.44;100853.69;5031108;28;1500;-46
2021/05/31 06:57:57;;;;;;;;;;;;;;;19.39;64.78;100843.75;5029971;28;1914;-46
2021/05/31 07:00:24;;;;;;;;;;;;;;;19.42;64.78;100843.50;5030226;28;2724;-45
2021/05/31 07:02:50;;;;;;;;;;;;;;;19.41;64.15;100852.50;5029508;28;1763;-45
2021/05/31 07:05:17;;;;;;;;;;;;;;;19.40;64.54;100841.94;5030299;28;1718;-45
2021/05/31 07:07:44;;;;;;;;;;;;;;;19.38;64.57;100842.06;5030906;28;1550;-45
2021/05/31 07:10:11;;;;;;;;;;;;;;;19.39;64.25;100840.25;5027768;28;1827;-46
2021/05/31 07:12:38;;;;;;;;;;;;;;;19.36;63.96;100845.84;5030166;28;1619;-46
2021/05/31 07:15:05;;;;;;;;;;;;;;;19.36;64.23;100837.81;5028445;28;1492;-46
2021/05/31 07:17:32;;;;;;;;;;;;;;;19.41;63.92;100841.78;5024202;28;1910;-46
2021/05/31 07:19:59;;;;;;;;;;;;;;;19.39;63.89;100842.91;5029535;28;1132;-46
2021/05/31 07:22:26;;;;;;;;;;;;;;;19.36;64.11;100837.81;5024884;28;1722;-45
2021/05/31 07:24:53;;;;;;;;;;;;;;;19.40;64.05;100839.28;5025616;28;1966;-45
2021/05/31 07:27:20;;;;;;;;;;;;;;;19.37;63.88;100844.88;5025077;28;1499;-45
2021/05/31 07:29:46;;;;;;;;;;;;;;;19.32;64.46;100841.75;5027724;28;1607;-45
2021/05/31 07:32:12;;;;;;;;;;;;;;;19.32;63.87;100848.00;5027418;28;1690;-45
2021/05/31 07:34:38;;;;;;;;;;;;;;;19.38;64.22;100851.97;5029126;28;1603;-46
2021/05/31 07:37:04;;;;;;;;;;;;;;;19.37;64.23;100856.47;5028062;28;1926;-46
2021/05/31 07:39:31;;;;;;;;;;;;;;;19.41;64.11;100851.69;5022927;28;1290;-46
2021/05/31 07:41:58;;;;;;;;;;;;;;;19.37;63.63;100843.03;5027967;28;1826;-45
2021/05/31 07:44:24;;;;;;;;;;;;;;;19.37;63.65;100843.03;5029185;28;1856;-45
2021/05/31 07:46:51;;;;;;;;;;;;;;;19.36;63.97;100857.47;5029407;28;1610;-46
2021/05/31 07:49:17;;;;;;;;;;;;;;;19.32;64.35;100847.13;5028456;28;1257;-45
2021/05/31 07:51:45;;;;;;;;;;;;;;;19.28;64.42;100843.88;5030319;28;1582;-46
2021/05/31 07:54:11;;;;;;;;;;;;;;;19.30;64.00;100833.88;5029082;28;1846;-46
2021/05/31 07:56:37;;;;;;;;;;;;;;;19.28;64.08;100842.03;5029625;28;2006;-45
2021/05/31 07:59:05;;;;;;;;;;;;;;;19.28;64.25;100842.03;5027840;28;2202;-47
2021/05/31 08:01:32;;;;;;;;;;;;;;;19.45;64.14;100848.56;5029508;28;1389;-45
2021/05/31 08:03:59;;;;;;;;;;;;;;;19.54;63.74;100835.34;5030623;28;1495;-44
2021/05/31 08:06:25;;;;;;;;;;;;;;;19.61;63.99;100839.16;5025669;28;1555;-45
2021/05/31 08:08:51;;;;;;;;;;;;;;;19.58;64.81;100837.63;5029841;28;1529;-46
2021/05/31 08:11:17;;;;;;;;;;;;;;;19.59;64.42;100846.50;5031603;28;1312;-45
2021/05/31 08:13:43;;;;;;;;;;;;;;;19.57;64.88;100852.00;5026355;28;1696;-45
2021/05/31 08:16:16;;;;;;;;;;;;;;;19.57;64.97;100835.06;5029050;28;1976;-46
2021/05/31 08:18:42;;;;;;;;;;;;;;;19.64;65.08;100844.28;5030079;28;1419;-45
2021/05/31 08:21:08;;;;;;;;;;;;;;;19.68;64.99;100838.47;5029010;28;1507;-45
2021/05/31 08:23:34;;;;;;;;;;;;;;;19.71;64.69;100837.38;5032798;28;1912;-46
2021/05/31 08:26:00;;;;;;;;;;;;;;;19.69;64.59;100847.38;5042466;28;1089;-45
2021/05/31 08:28:26;;;;;;;;;;;;;;;19.66;64.81;100850.34;5039049;28;1944;-45
2021/05/31 08:30:52;;;;;;;;;;;;;;;19.68;65.61;100843.84;5031234;28;1527;-45
2021/05/31 08:33:19;;;;;;;;;;;;;;;19.73;64.81;100851.50;5036790;28;1821;-45
2021/05/31 08:35:46;;;;;;;;;;;;;;;19.70;63.77;100843.72;5035249;28;1523;-45
2021/05/31 08:38:12;;;;;;;;;;;;;;;19.71;65.02;100842.75;5029953;28;1534;-45
2021/05/31 08:40:39;;;;;;;;;;;;;;;19.72;65.61;100843.63;5038295;28;1395;-45
2021/05/31 08:43:05;;;;;;;;;;;;;;;19.66;64.47;100834.25;5037526;28;1459;-45
2021/05/31 08:45:32;;;;;;;;;;;;;;;19.66;64.80;100824.34;5037801;28;1924;-45
2021/05/31 08:47:58;;;;;;;;;;;;;;;19.68;64.39;100849.22;5028090;28;1944;-45
2021/05/31 08:50:27;;;;;;;;;;;;;;;19.67;64.95;100842.13;5024258;28;1457;-45
2021/05/31 08:52:53;;;;;;;;;;;;;;;19.69;64.61;100844.69;5033418;28;1448;-45
2021/05/31 08:55:20;;;;;;;;;;;;;;;19.70;64.68;100846.41;5041300;28;1174;-45
2021/05/31 08:57:47;;;;;;;;;;;;;;;19.70;64.00;100841.03;5043508;28;1973;-44
2021/05/31 09:00:14;;;;;;;;;;;;;;;19.69;64.13;100833.97;5033967;28;1610;-45
2021/05/31 09:02:41;;;;;;;;;;;;;;;19.74;64.45;100841.66;5034884;28;1487;-44
2021/05/31 09:05:07;;;;;;;;;;;;;;;19.76;64.68;100835.13;5033212;28;1676;-44
2021/05/31 09:07:35;;;;;;;;;;;;;;;19.75;64.70;100846.84;5034472;28;1541;-44
2021/05/31 09:10:01;;;;;;;;;;;;;;;19.76;64.23;100843.19;5029302;28;1462;-44
2021/05/31 09:12:28;;;;;;;;;;;;;;;19.77;64.76;100852.91;5030370;28;1547;-44
2021/05/31 09:14:54;;;;;;;;;;;;;;;19.70;64.53;100838.34;5038339;28;1698;-48
2021/05/31 09:17:23;;;;;;;;;;;;;;;19.74;64.73;100831.75;5033643;28;1985;-44
2021/05/31 09:19:49;;;;;;;;;;;;;;;19.75;64.55;100849.53;5030704;28;1440;-45
2021/05/31 09:22:15;;;;;;;;;;;;;;;19.71;64.75;100833.81;5034614;28;1547;-44
2021/05/31 09:24:52;;;;;;;;;;;;;;;19.75;64.81;100856.75;5035274;28;1095;-44
2021/05/31 09:27:18;;;;;;;;;;;;;;;19.74;65.28;100852.38;5029473;28;1539;-44
2021/05/31 09:29:53;;;;;;;;;;;;;;;19.73;64.38;100840.78;5033901;28;2003;-45
2021/05/31 09:32:19;;;;;;;;;;;;;;;19.73;65.27;100842.63;5030133;28;1508;-44
2021/05/31 09:34:45;;;;;;;;;;;;;;;19.75;64.81;100838.78;5031835;28;1631;-44
2021/05/31 09:37:11;;;;;;;;;;;;;;;19.76;64.64;100850.41;5028274;28;1981;-44
2021/05/31 09:39:38;;;;;;;;;;;;;;;19.77;64.56;100836.81;5030398;28;1309;-45
2021/05/31 09:42:11;;;;;;;;;;;;;;;19.78;65.32;100841.22;5031662;28;1956;-44
2021/05/31 09:44:37;;;;;;;;;;;;;;;19.79;64.98;100845.56;5026658;28;1610;-45
2021/05/31 09:47:03;;;;;;;;;;;;;;;19.81;65.14;100843.59;5035952;28;1547;-45
2021/05/31 09:49:29;;;;;;;;;;;;;;;19.91;65.75;100821.31;5034093;28;1470;-45
2021/05/31 09:51:58;;;;;;;;;;;;;;;19.91;65.74;100835.56;5034215;28;1340;-46
2021/05/31 09:54:34;;;;;;;;;;;;;;;19.92;64.89;100839.97;5034027;28;1913;-46
2021/05/31 09:57:01;;;;;;;;;;;;;;;19.89;64.61;100839.38;5048063;28;1905;-48
2021/05/31 09:59:30;;;;;;;;;;;;;;;19.92;64.64;100845.34;5027532;28;2248;-46
2021/05/31 10:01:57;;;;;;;;;;;;;;;19.89;65.08;100829.50;5032395;28;1951;-46
2021/05/31 10:04:28;;;;;;;;;;;;;;;19.94;64.77;100839.84;5026738;28;1477;-47
2021/05/31 10:06:57;;;;;;;;;;;;;;;19.95;65.65;100846.88;5032808;28;1135;-46
2021/05/31 10:09:23;;;;;;;;;;;;;;;19.89;65.31;100823.28;5029233;28;1584;-46
2021/05/31 10:11:50;;;;;;;;;;;;;;;19.93;65.04;100832.75;5032637;28;1654;-45
2021/05/31 10:14:17;;;;;;;;;;;;;;;19.96;66.31;100824.44;5026939;28;1467;-44
2021/05/31 10:16:44;;;;;;;;;;;;;;;19.89;65.12;100823.28;5032187;28;1910;-45
2021/05/31 10:19:11;;;;;;;;;;;;;;;19.72;65.13;100823.00;5025919;28;1112;-44
2021/05/31 10:21:37;;;;;;;;;;;;;;;19.79;66.11;100823.28;5028877;28;1722;-44
2021/05/31 10:24:03;;;;;;;;;;;;;;;19.85;65.62;100811.97;5024526;28;1518;-44
2021/05/31 10:26:31;;;;;;;;;;;;;;;19.92;64.79;100806.91;5031719;28;1547;-45
2021/05/31 10:28:58;;;;;;;;;;;;;;;19.97;66.09;100810.00;5028321;28;1269;-44
2021/05/31 10:31:25;;;;;;;;;;;;;;;19.97;65.23;100804.63;5026865;28;1551;-44
2021/05/31 10:33:58;;;;;;;;;;;;;;;20.00;65.63;100799.00;5024918;28;1594;-45
2021/05/31 10:36:24;;;;;;;;;;;;;;;19.98;65.60;100790.25;5025877;28;1914;-44
2021/05/31 10:38:51;;;;;;;;;;;;;;;19.96;66.02;100795.75;5027002;28;1547;-44
2021/05/31 10:41:19;;;;;;;;;;;;;;;19.98;65.71;100787.56;5022272;28;1100;-44
2021/05/31 10:43:47;;;;;;;;;;;;;;;19.98;67.11;100792.94;5031403;28;1771;-44
2021/05/31 10:46:15;;;;;;;;;;;;;;;20.00;65.70;100782.91;5029782;28;1493;-45
2021/05/31 10:48:42;;;;;;;;;;;;;;;20.02;65.88;100784.44;5031834;28;1540;-44
2021/05/31 10:51:13;;;;;;;;;;;;;;;20.01;66.78;100785.41;5030296;28;1614;-44
2021/05/31 10:53:39;;;;;;;;;;;;;;;19.99;66.50;100775.81;5029274;28;1524;-44
2021/05/31 10:56:06;;;;;;;;;;;;;;;20.05;66.04;100772.56;5030490;28;1902;-45
2021/05/31 10:58:35;;;;;;;;;;;;;;;20.02;67.33;100783.59;5020322;28;1592;-45
2021/05/31 11:01:02;;;;;;;;;;;;;;;20.02;67.27;100764.81;5026259;28;1551;-44
2021/05/31 11:03:28;;;;;;;;;;;;;;;20.00;66.97;100778.38;5027839;28;1503;-45
2021/05/31 11:05:54;;;;;;;;;;;;;;;20.03;67.27;100774.53;5032150;28;1696;-46
2021/05/31 11:08:26;;;;;;;;;;;;;;;20.05;67.08;100767.19;5028570;28;1706;-45
2021/05/31 11:10:56;;;;;;;;;;;;;;;20.14;65.41;100755.63;5029287;28;1402;-45
2021/05/31 11:13:22;;;;;;;;;;;;;;;20.02;63.23;100770.19;5032022;28;1571;-45
2021/05/31 11:16:01;;;;;;;;;;;;;;;19.96;64.38;100776.97;5032066;28;1500;-45
2021/05/31 11:18:32;;;;;;;;;;;;;;;20.02;65.11;100771.03;5031953;28;1902;-45
2021/05/31 11:20:59;;;;;;;;;;;;;;;20.02;65.70;100764.81;5031509;28;1491;-45
2021/05/31 11:26:31;;;;;;;;;;;;;;;20.01;66.87;100742.47;5026004;28;1500;-45
2021/05/31 11:28:57;;;;;;;;;;;;;;;19.98;66.61;100752.66;5025751;28;1171;-45
2021/05/31 11:31:24;;;;;;;;;;;;;;;20.04;66.98;100757.47;5029633;28;1965;-45
2021/05/31 11:33:53;;;;;;;;;;;;;;;20.11;66.39;100752.38;5026994;28;1677;-45
2021/05/31 11:36:26;;;;;;;;;;;;;;;20.12;66.25;100754.91;5028802;28;2012;-45
2021/05/31 11:38:52;;;;;;;;;;;;;;;20.09;67.23;100765.09;5030458;28;1523;-45
2021/05/31 11:41:19;;;;;;;;;;;;;;;20.10;67.09;100756.91;5028908;28;1638;-45
2021/05/31 11:43:50;;;;;;;;;;;;;;;20.09;67.18;100738.25;5029511;28;1708;-45
2021/05/31 11:46:16;;;;;;;;;;;;;;;20.09;67.64;100744.44;5029878;28;1528;-45
2021/05/31 11:48:42;;;;;;;;;;;;;;;20.09;67.96;100744.44;5030536;28;1767;-45
2021/05/31 11:51:08;;;;;;;;;;;;;;;20.11;67.23;100737.09;5029886;28;1489;-45
2021/05/31 11:53:43;;;;;;;;;;;;;;;20.10;67.31;100737.25;5030282;28;1424;-44
2021/05/31 11:56:09;;;;;;;;;;;;;;;20.13;68.19;100745.00;5027170;28;1909;-44
2021/05/31 11:58:39;;;;;;;;;;;;;;;20.11;68.10;100731.72;5026455;28;1643;-45
2021/05/31 12:01:08;;;;;;;;;;;;;;;20.12;67.62;100730.75;5029403;28;1584;-44
2021/05/31 12:03:34;;;;;;;;;;;;;;;20.12;68.12;100722.69;5033811;28;1853;-44
2021/05/31 12:06:09;;;;;;;;;;;;;;;20.13;68.03;100732.44;5034271;28;2388;-44
2021/05/31 12:08:36;;;;;;;;;;;;;;;20.16;68.39;100716.03;5031952;28;1503;-43
2021/05/31 12:11:02;;;;;;;;;;;;;;;20.17;68.39;100709.66;5034596;28;1531;-44
2021/05/31 12:13:29;;;;;;;;;;;;;;;20.16;68.56;100721.41;5031632;28;1934;-44
2021/05/31 12:15:55;;;;;;;;;;;;;;;20.18;68.32;100721.28;5030512;28;1747;-44
2021/05/31 12:18:23;;;;;;;;;;;;;;;20.19;67.27;100710.41;5031942;28;2032;-44
2021/05/31 12:20:55;;;;;;;;;;;;;;;20.15;67.78;100711.66;5030704;28;1568;-45
2021/05/31 12:23:22;;;;;;;;;;;;;;;20.11;69.19;100699.50;5029353;28;1691;-44
2021/05/31 12:25:48;;;;;;;;;;;;;;;20.15;69.14;100705.44;5036735;28;1475;-45
2021/05/31 12:28:15;;;;;;;;;;;;;;;20.18;67.90;100703.31;5033610;28;2030;-46
2021/05/31 12:30:43;;;;;;;;;;;;;;;20.17;68.94;100698.94;5031710;28;1846;-46
2021/05/31 12:33:10;;;;;;;;;;;;;;;20.17;67.77;100698.09;5031155;28;1643;-47
2021/05/31 12:35:37;;;;;;;;;;;;;;;20.15;68.65;100705.44;5031255;28;2255;-47
2021/05/31 12:38:03;;;;;;;;;;;;;;;20.19;68.39;100701.47;5033157;28;1907;-46
2021/05/31 12:40:31;;;;;;;;;;;;;;;20.20;67.79;100693.28;5035209;28;1165;-46
2021/05/31 12:42:57;;;;;;;;;;;;;;;20.24;68.19;100694.69;5033276;28;1686;-46
2021/05/31 12:45:23;;;;;;;;;;;;;;;20.22;67.85;100699.34;5033577;28;1530;-46
2021/05/31 12:47:50;;;;;;;;;;;;;;;20.23;68.78;100693.00;5033664;28;1518;-48
2021/05/31 12:50:23;;;;;;;;;;;;;;;20.22;69.35;100693.16;5033546;28;1702;-47
2021/05/31 12:52:50;;;;;;;;;;;;;;;20.24;68.77;100691.16;5033757;28;1558;-46
2021/05/31 12:55:19;;;;;;;;;;;;;;;20.17;67.07;100677.44;5032294;28;1609;-46
2021/05/31 12:57:46;;;;;;;;;;;;;;;20.14;67.52;100680.44;5032734;28;1906;-46
2021/05/31 13:00:13;;;;;;;;;;;;;;;20.16;67.51;100674.94;5033558;28;1531;-47
2021/05/31 13:02:40;;;;;;;;;;;;;;;20.17;68.12;100688.19;5033578;28;1603;-46
2021/05/31 13:05:08;;;;;;;;;;;;;;;20.19;69.02;100678.19;5031909;28;1558;-46